Station: Busselton Airport  

  Atmospheric Gas Attenuation - ITU Rec 676-11   ----------------- dB/100km -----------------
Date Time Temp RH % AH g/m3 Dew Point Wind Direction Speed kph Gust kph Barometer mB Rainfall Since 9am 24GHz 47GHz 76GHz 122GHz 134GHz 241GHz
03/05 03:10 12 100 10.66 12 0 0 1025.5 0.4 24.1 30.5 50.2 131.9 130.9 451.9
03/05 03:00 12 100 10.66 12 0 0 1025.6 0.4 24.1 30.5 50.2 131.9 130.9 451.9
03/05 02:50 11.9 100 10.59 11.9 0 0 1025.6 0.4 23.9 30.4 49.9 131.2 130.1 448.9
03/05 02:40 11.9 100 10.59 11.9 0 0 1025.6 0.4 23.9 30.4 49.9 131.2 130.1 448.9
03/05 02:30 11.8 100 10.53 11.8 0 0 1025.6 0.4 23.8 30.3 49.7 130.7 129.4 446.4
03/05 02:20 11.7 100 10.46 11.7 0 0 1025.6 0.4 23.7 30.2 49.5 130.0 128.5 443.4
03/05 02:10 11.6 100 10.4 11.6 0 0 1025.7 0.4 23.6 30.1 49.3 129.5 127.8 440.9
03/05 02:00 11.6 99 10.29 11.4 0 4 1025.6 0.4 23.3 29.9 48.8 128.2 126.2 435.3
03/05 01:50 11.6 99 10.29 11.4 2 4 1025.6 0.4 23.3 29.9 48.8 128.2 126.2 435.3
03/05 01:40 11.6 99 10.29 11.4 6 6 1025.6 0.4 23.3 29.9 48.8 128.2 126.2 435.3
03/05 01:30 11.7 99 10.36 11.5 6 7 1025.7 0.2 23.5 30.0 49.0 128.8 127.1 438.3
03/05 01:20 11.5 99 10.23 11.3 6 7 1025.7 0.2 23.2 29.9 48.6 127.6 125.5 432.8
03/05 01:10 11.5 99 10.23 11.3 4 6 1025.7 0.2 23.2 29.9 48.6 127.6 125.5 432.8
03/05 01:00 11.5 99 10.23 11.3 6 6 1025.7 0.2 23.2 29.9 48.6 127.6 125.5 432.8
03/05 00:50 11.4 99 10.16 11.2 6 7 1025.7 0.2 23.0 29.8 48.3 127.0 124.7 429.8
03/05 00:40 11.4 97 9.96 10.9 7 7 1025.6 0.2 22.6 29.4 47.4 124.6 121.7 419.7
03/05 00:30 11.5 96 9.92 10.9 6 7 1025.6 0.2 22.5 29.3 47.2 124.0 121.0 417.1
03/05 00:20 11.6 95 9.88 10.8 6 7 1025.6 0.2 22.4 29.2 47.0 123.4 120.3 414.5
03/05 00:10 11.6 95 9.88 10.8 6 7 1025.6 0.2 22.4 29.2 47.0 123.4 120.3 414.5
03/05 00:00 11.4 95 9.75 10.6 2 7 1025.6 0.2 22.2 29.1 46.5 122.2 118.7 409.1
02/05 23:50 11.3 95 9.69 10.5 6 6 1025.5 0.2 22.0 29.0 46.3 121.6 118.0 406.6
02/05 23:40 11.3 95 9.69 10.5 6 7 1025.5 0.2 22.0 29.0 46.3 121.6 118.0 406.6
02/05 23:30 11 95 9.51 10.2 0 0 1025.5 0.2 21.7 28.8 45.7 120.0 115.9 399.1
02/05 23:20 10.9 95 9.45 10.1 0 0 1025.6 0.2 21.5 28.7 45.5 119.4 115.2 396.7
02/05 23:10 11 95 9.51 10.2 0 0 1025.6 0.2 21.7 28.8 45.7 120.0 115.9 399.2
02/05 23:00 11 95 9.51 10.2 6 7 1025.7 0.2 21.7 28.8 45.7 120.0 115.9 399.2
02/05 22:50 10.9 94 9.35 10 6 7 1025.8 0.2 21.3 28.5 45.1 118.3 113.8 391.7
02/05 22:40 11 94 9.41 10.1 7 7 1025.8 0.2 21.5 28.6 45.3 118.9 114.5 394.2
02/05 22:30 11 94 9.41 10.1 6 7 1025.9 0.2 21.5 28.6 45.3 118.9 114.5 394.3
02/05 22:20 11 95 9.51 10.2 6 6 1025.8 0.2 21.7 28.8 45.7 120.0 115.9 399.2
02/05 22:10 10.9 95 9.45 10.1 6 6 1025.9 0.2 21.5 28.7 45.5 119.5 115.2 396.8
02/05 22:00 10.7 96 9.43 10.1 7 9 1025.9 0.2 21.5 28.7 45.5 119.6 115.2 396.8
02/05 21:50 10.3 94 9 9.4 7 7 1025.8 0.2 20.6 28.1 43.9 115.2 109.7 377.3
02/05 21:40 10.3 94 9 9.4 4 6 1025.8 0.2 20.6 28.1 43.9 115.2 109.7 377.3
02/05 21:30 10.4 95 9.16 9.6 7 9 1025.8 0.2 20.9 28.4 44.5 116.9 111.8 384.8
02/05 21:20 9.9 94 8.78 9 7 9 1025.8 0.2 20.2 27.9 43.2 113.2 107.1 368.3
02/05 21:10 9.5 92 8.38 8.3 7 9 1025.8 0.2 19.3 27.3 41.7 109.2 102.0 350.5
02/05 21:00 9.7 92 8.48 8.5 7 9 1025.7 0.2 19.5 27.4 42.0 110.1 103.2 354.4
02/05 20:50 9.5 92 8.38 8.3 7 7 1025.6 0.2 19.3 27.3 41.7 109.2 102.0 350.4
02/05 20:40 9.6 91 8.34 8.2 7 9 1025.6 0.2 19.2 27.2 41.4 108.6 101.3 348.0
02/05 20:30 9.6 90 8.25 8 9 11 1025.6 0.2 19.0 27.0 41.1 107.6 100.1 343.6
02/05 20:20 9.8 89 8.26 8.1 9 9 1025.6 0.2 19.0 27.0 41.0 107.4 99.9 343.2
02/05 20:10 9.8 87 8.07 7.7 9 11 1025.5 0.2 18.6 26.7 40.2 105.3 97.3 334.0
02/05 20:00 10.4 86 8.29 8.2 7 9 1025.5 0.2 19.1 26.9 40.8 106.9 99.6 342.0
02/05 19:50 10.7 83 8.15 7.9 7 7 1025.4 0.2 18.8 26.5 40.1 105.0 97.3 333.9
02/05 19:40 11.4 83 8.52 8.6 7 7 1025.5 0.2 19.5 26.9 41.3 108.1 101.4 348.7
02/05 19:30 11.4 83 8.52 8.6 6 7 1025.5 0.2 19.5 26.9 41.3 108.1 101.4 348.7
02/05 19:20 11.2 80 8.11 7.9 7 9 1025.5 0.2 18.7 26.3 39.7 103.9 96.1 329.9
02/05 19:10 11.8 80 8.42 8.5 9 11 1025.5 0.2 19.3 26.7 40.6 106.5 99.5 342.1
02/05 19:00 12 79 8.42 8.5 11 15 1025.4 0.2 19.3 26.6 40.5 106.2 99.3 341.2
02/05 18:50 12.8 78 8.74 9.1 13 13 1025.3 0.2 19.9 26.9 41.4 108.6 102.6 352.8
02/05 18:40 12.4 79 8.63 8.9 13 13 1025.3 0.2 19.7 26.8 41.2 107.9 101.6 349.4
02/05 18:30 12 78 8.31 8.3 11 13 1025.2 0.2 19.0 26.4 40.1 105.0 97.8 335.9
02/05 18:20 12.4 76 8.3 8.3 11 13 1025.1 0.2 19.0 26.3 39.8 104.3 97.1 333.7
02/05 18:10 13.2 73 8.38 8.5 13 15 1025 0.2 19.1 26.2 39.7 104.1 97.2 334.1
02/05 18:00 13.9 71 8.51 8.7 15 17 1024.8 0.2 19.4 26.2 39.9 104.6 98.0 337.1
02/05 17:50 14.7 68 8.56 8.9 17 19 1024.7 0.2 19.4 26.0 39.7 104.0 97.7 335.9
02/05 17:40 15.3 67 8.75 9.2 19 20 1024.6 0.2 19.8 26.1 40.2 105.2 99.4 342.1
02/05 17:30 15.3 67 8.75 9.2 15 20 1024.5 0.2 19.8 26.1 40.1 105.2 99.4 342.0
02/05 17:20 15.4 65 8.54 8.9 17 19 1024.4 0.2 19.4 25.8 39.3 102.9 96.5 332.0
02/05 17:10 15.7 64 8.56 8.9 15 15 1024.3 0.2 19.4 25.7 39.2 102.7 96.4 331.6
02/05 17:00 16 64 8.72 9.2 15 19 1024.2 0.2 19.7 25.9 39.7 104.0 98.1 337.6
02/05 16:50 16.4 62 8.65 9.1 17 19 1024.3 0.2 19.6 25.6 39.2 102.7 96.7 332.7
02/05 16:40 16.5 61 8.57 9 20 24 1024.2 0.2 19.4 25.5 38.8 101.7 95.5 328.7
02/05 16:30 16.6 63 8.9 9.5 17 20 1024.2 0.2 20.1 26.0 40.1 105.1 99.7 343.2
02/05 16:20 17 62 8.97 9.7 15 19 1024.2 0.2 20.2 26.0 40.1 105.3 100.1 344.6
02/05 16:10 17.1 59 8.59 9 20 22 1024.2 0.2 19.4 25.3 38.6 101.2 95.1 327.1
02/05 16:00 16.6 64 9.04 9.8 17 22 1024.3 0.2 20.4 26.2 40.6 106.5 101.5 349.5
02/05 15:50 16.9 64 9.2 10.1 17 19 1024.2 0.2 20.7 26.4 41.1 107.8 103.2 355.5
02/05 15:40 16.9 64 9.2 10.1 15 17 1024.2 0.2 20.7 26.4 41.1 107.8 103.2 355.5
02/05 15:30 16.5 65 9.13 9.9 13 20 1024.3 0.2 20.6 26.4 41.0 107.6 102.8 354.1
02/05 15:20 16.3 66 9.16 9.9 13 15 1024.3 0.2 20.6 26.5 41.3 108.2 103.4 356.4
02/05 15:10 16 68 9.26 10.1 17 17 1024.4 0.2 20.9 26.7 41.8 109.7 105.2 362.4
02/05 15:00 15.9 67 9.07 9.8 28 39 1024.4 0.2 20.5 26.5 41.1 107.8 102.8 354.1
02/05 14:50 17 61 8.83 9.4 28 32 1024.3 0.2 19.9 25.7 39.6 103.8 98.3 338.3
02/05 14:40 17.9 58 8.86 9.5 22 26 1024.2 0.2 19.9 25.5 39.3 103.0 97.5 335.8
02/05 14:30 17.4 61 9.04 9.8 17 22 1024.3 0.2 20.3 26.0 40.2 105.5 100.5 346.0
02/05 14:20 17 63 9.12 9.9 17 19 1024.3 0.2 20.5 26.2 40.7 106.9 102.0 351.4
02/05 14:10 16.6 65 9.18 10 17 20 1024.5 0.2 20.7 26.4 41.2 108.1 103.3 356.0
02/05 14:00 16.8 65 9.29 10.2 24 32 1024.6 0.2 20.9 26.6 41.5 109.0 104.5 360.1
02/05 13:50 16.4 66 9.21 10 26 32 1024.6 0.2 20.7 26.5 41.4 108.7 104.0 358.3
02/05 13:40 17 60 8.68 9.2 32 33 1024.6 0.2 19.6 25.5 39.0 102.3 96.4 331.7
02/05 13:30 17.7 56 8.45 8.8 22 30 1024.4 0.2 19.1 25.0 37.8 99.0 92.6 318.5
02/05 13:20 18.2 56 8.7 9.3 24 28 1024.6 0.2 19.6 25.2 38.5 101.0 95.2 327.6
02/05 13:10 18 57 8.75 9.4 17 19 1024.6 0.2 19.7 25.4 38.8 101.7 96.0 330.6
02/05 13:00 17.5 57 8.5 8.9 22 28 1024.8 0.2 19.2 25.1 38.1 99.8 93.5 321.7
02/05 12:50 18.2 59 9.17 10.1 20 22 1024.9 0.2 20.6 26.0 40.4 105.8 101.1 348.5
02/05 12:40 17.5 57 8.5 8.9 24 30 1025.2 0.2 19.2 25.1 38.1 99.9 93.5 321.8
02/05 12:30 17 60 8.68 9.2 22 28 1025.3 0.2 19.6 25.5 39.1 102.4 96.4 331.8
02/05 12:20 16.7 65 9.24 10.1 22 26 1025.6 0.2 20.8 26.5 41.4 108.7 104.1 358.6
02/05 12:10 16.3 67 9.29 10.2 20 24 1025.8 0.2 20.9 26.7 41.8 109.8 105.3 362.8
02/05 12:00 17.3 67 9.87 11.1 17 28 1026 0.2 22.1 27.4 43.7 114.6 111.6 385.0
02/05 11:50 15.4 73 9.59 10.6 11 15 1026.2 0.2 21.6 27.5 43.6 114.3 110.6 381.2
02/05 11:40 15.1 81 10.45 11.9 13 17 1026.4 0.2 23.5 29.1 47.3 124.4 122.9 424.1
02/05 11:30 14.2 85 10.38 11.7 11 13 1026.5 0.2 23.4 29.3 47.6 125.1 123.3 425.6
02/05 11:20 13.6 90 10.59 12 9 11 1026.6 0.2 23.8 29.8 48.9 128.5 127.3 439.4
02/05 11:10 13.1 90 10.27 11.5 9 13 1026.6 0.2 23.2 29.4 47.8 125.6 123.6 426.2
02/05 11:00 13.5 80 9.36 10.1 20 32 1026.9 0 21.2 27.8 43.7 114.7 110.2 379.7
02/05 10:50 14.5 74 9.2 9.9 17 19 1026.8 0 20.8 27.2 42.5 111.4 106.6 367.2
02/05 10:40 14.6 76 9.51 10.4 11 13 1026.8 0 21.5 27.7 43.7 114.7 110.7 381.4

Last Refresh: 03-May-2026 04:44:57

Bureau of Meteorology